sensor_id;sensor_type;location;lat;lon;timestamp;pressure;altitude;pressure_sealevel;temperature;humidity
29121;BME280;16191;49.548;8.658;2023-03-25T00:01:13;99659.25;;;9.57;100.00
29121;BME280;16191;49.548;8.658;2023-03-25T00:03:41;99658.41;;;9.57;100.00
29121;BME280;16191;49.548;8.658;2023-03-25T00:06:09;99662.78;;;9.56;100.00
29121;BME280;16191;49.548;8.658;2023-03-25T00:08:37;99667.13;;;9.56;100.00
29121;BME280;16191;49.548;8.658;2023-03-25T00:11:05;99662.16;;;9.51;100.00
29121;BME280;16191;49.548;8.658;2023-03-25T00:13:32;99658.91;;;9.46;100.00
29121;BME280;16191;49.548;8.658;2023-03-25T00:16:00;99663.34;;;9.44;100.00
29121;BME280;16191;49.548;8.658;2023-03-25T00:18:29;99659.78;;;9.47;100.00
29121;BME280;16191;49.548;8.658;2023-03-25T00:21:04;99671.28;;;9.41;100.00
29121;BME280;16191;49.548;8.658;2023-03-25T00:23:32;99671.50;;;9.37;100.00
29121;BME280;16191;49.548;8.658;2023-03-25T00:25:59;99683.66;;;9.36;100.00
29121;BME280;16191;49.548;8.658;2023-03-25T00:28:28;99685.63;;;9.31;100.00
29121;BME280;16191;49.548;8.658;2023-03-25T00:31:13;99681.28;;;9.32;100.00
29121;BME280;16191;49.548;8.658;2023-03-25T00:33:40;99682.41;;;9.26;100.00
29121;BME280;16191;49.548;8.658;2023-03-25T00:36:07;99682.34;;;9.27;100.00
29121;BME280;16191;49.548;8.658;2023-03-25T00:38:35;99690.59;;;9.17;100.00
29121;BME280;16191;49.548;8.658;2023-03-25T00:41:14;99682.47;;;9.24;100.00
29121;BME280;16191;49.548;8.658;2023-03-25T00:43:50;99690.53;;;9.18;100.00
29121;BME280;16191;49.548;8.658;2023-03-25T00:46:18;99679.47;;;9.13;100.00
29121;BME280;16191;49.548;8.658;2023-03-25T00:48:46;99682.94;;;9.14;100.00
29121;BME280;16191;49.548;8.658;2023-03-25T00:51:12;99671.91;;;9.09;100.00
29121;BME280;16191;49.548;8.658;2023-03-25T00:53:45;99681.47;;;9.08;100.00
29121;BME280;16191;49.548;8.658;2023-03-25T00:56:12;99681.31;;;9.11;100.00
29121;BME280;16191;49.548;8.658;2023-03-25T00:58:39;99691.88;;;9.08;100.00
29121;BME280;16191;49.548;8.658;2023-03-25T01:01:15;99680.75;;;9.05;100.00
29121;BME280;16191;49.548;8.658;2023-03-25T01:03:43;99679.34;;;9.16;100.00
29121;BME280;16191;49.548;8.658;2023-03-25T01:06:15;99683.72;;;9.16;100.00
29121;BME280;16191;49.548;8.658;2023-03-25T01:08:43;99669.13;;;9.12;100.00
29121;BME280;16191;49.548;8.658;2023-03-25T01:11:19;99670.75;;;9.14;100.00
29121;BME280;16191;49.548;8.658;2023-03-25T01:13:48;99666.41;;;9.15;100.00
29121;BME280;16191;49.548;8.658;2023-03-25T01:16:14;99653.38;;;9.15;100.00
29121;BME280;16191;49.548;8.658;2023-03-25T01:18:41;99654.94;;;9.19;100.00
29121;BME280;16191;49.548;8.658;2023-03-25T01:21:08;99660.28;;;9.16;100.00
29121;BME280;16191;49.548;8.658;2023-03-25T01:23:34;99646.50;;;9.14;100.00
29121;BME280;16191;49.548;8.658;2023-03-25T01:26:01;99652.53;;;9.14;100.00
29121;BME280;16191;49.548;8.658;2023-03-25T01:28:28;99647.22;;;9.17;100.00
29121;BME280;16191;49.548;8.658;2023-03-25T01:31:03;99645.31;;;9.21;100.00
29121;BME280;16191;49.548;8.658;2023-03-25T01:33:30;99648.06;;;9.18;100.00
29121;BME280;16191;49.548;8.658;2023-03-25T01:35:58;99648.19;;;9.15;100.00
29121;BME280;16191;49.548;8.658;2023-03-25T01:38:25;99628.22;;;9.15;100.00
29121;BME280;16191;49.548;8.658;2023-03-25T01:40:53;99624.88;;;9.12;100.00
29121;BME280;16191;49.548;8.658;2023-03-25T01:43:20;99623.13;;;9.12;100.00
29121;BME280;16191;49.548;8.658;2023-03-25T01:45:47;99637.06;;;9.11;100.00
29121;BME280;16191;49.548;8.658;2023-03-25T01:48:28;99639.31;;;9.00;100.00
29121;BME280;16191;49.548;8.658;2023-03-25T01:51:07;99641.50;;;8.89;100.00
29121;BME280;16191;49.548;8.658;2023-03-25T01:53:36;99649.41;;;8.87;100.00
29121;BME280;16191;49.548;8.658;2023-03-25T01:56:05;99655.00;;;8.78;100.00
29121;BME280;16191;49.548;8.658;2023-03-25T01:58:35;99675.34;;;8.69;100.00
29121;BME280;16191;49.548;8.658;2023-03-25T02:01:02;99678.09;;;8.66;100.00
29121;BME280;16191;49.548;8.658;2023-03-25T02:03:29;99684.56;;;8.55;100.00
29121;BME280;16191;49.548;8.658;2023-03-25T02:06:00;99690.22;;;8.45;100.00
29121;BME280;16191;49.548;8.658;2023-03-25T02:08:32;99702.03;;;8.30;100.00
29121;BME280;16191;49.548;8.658;2023-03-25T02:11:04;99688.13;;;8.33;100.00
29121;BME280;16191;49.548;8.658;2023-03-25T02:13:32;99682.34;;;8.24;100.00
29121;BME280;16191;49.548;8.658;2023-03-25T02:16:15;99654.25;;;8.12;100.00
29121;BME280;16191;49.548;8.658;2023-03-25T02:34:22;99663.41;;;8.01;100.00
29121;BME280;16191;49.548;8.658;2023-03-25T02:42:38;99676.50;;;7.76;100.00
29121;BME280;16191;49.548;8.658;2023-03-25T02:47:52;99680.94;;;7.72;100.00
29121;BME280;16191;49.548;8.658;2023-03-25T02:50:24;99687.53;;;7.81;100.00
29121;BME280;16191;49.548;8.658;2023-03-25T02:52:57;99680.16;;;7.70;100.00
29121;BME280;16191;49.548;8.658;2023-03-25T02:55:26;99687.38;;;7.62;100.00
29121;BME280;16191;49.548;8.658;2023-03-25T02:57:56;99694.31;;;7.62;100.00
29121;BME280;16191;49.548;8.658;2023-03-25T03:00:27;99692.84;;;7.56;100.00
29121;BME280;16191;49.548;8.658;2023-03-25T03:03:00;99687.75;;;7.53;100.00
29121;BME280;16191;49.548;8.658;2023-03-25T03:05:31;99682.44;;;7.56;100.00
29121;BME280;16191;49.548;8.658;2023-03-25T03:08:29;99670.84;;;7.65;100.00
29121;BME280;16191;49.548;8.658;2023-03-25T03:11:12;99672.22;;;7.75;100.00
29121;BME280;16191;49.548;8.658;2023-03-25T03:22:16;99665.31;;;7.74;100.00
29121;BME280;16191;49.548;8.658;2023-03-25T03:25:34;99662.59;;;7.77;100.00
29121;BME280;16191;49.548;8.658;2023-03-25T03:27:42;99657.22;;;7.81;100.00
29121;BME280;16191;49.548;8.658;2023-03-25T03:30:27;99654.88;;;7.75;100.00
29121;BME280;16191;49.548;8.658;2023-03-25T03:33:01;99661.88;;;7.73;100.00
29121;BME280;16191;49.548;8.658;2023-03-25T03:35:35;99654.19;;;7.70;100.00
29121;BME280;16191;49.548;8.658;2023-03-25T03:38:08;99656.84;;;7.69;100.00
29121;BME280;16191;49.548;8.658;2023-03-25T03:40:40;99662.09;;;7.67;100.00
29121;BME280;16191;49.548;8.658;2023-03-25T03:43:18;99661.09;;;7.71;100.00
29121;BME280;16191;49.548;8.658;2023-03-25T03:45:52;99674.19;;;7.68;100.00
29121;BME280;16191;49.548;8.658;2023-03-25T03:48:37;99672.44;;;7.69;100.00
29121;BME280;16191;49.548;8.658;2023-03-25T03:51:17;99674.19;;;7.68;100.00
29121;BME280;16191;49.548;8.658;2023-03-25T03:56:20;99674.06;;;7.71;100.00
29121;BME280;16191;49.548;8.658;2023-03-25T03:58:50;99680.22;;;7.69;100.00
29121;BME280;16191;49.548;8.658;2023-03-25T04:03:59;99684.63;;;7.67;100.00
29121;BME280;16191;49.548;8.658;2023-03-25T04:06:35;99690.66;;;7.67;100.00
29121;BME280;16191;49.548;8.658;2023-03-25T04:11:49;99699.41;;;7.65;100.00
29121;BME280;16191;49.548;8.658;2023-03-25T04:14:18;99701.22;;;7.63;100.00
29121;BME280;16191;49.548;8.658;2023-03-25T04:16:46;99689.94;;;7.64;100.00
29121;BME280;16191;49.548;8.658;2023-03-25T04:19:12;99687.34;;;7.64;100.00
29121;BME280;16191;49.548;8.658;2023-03-25T04:21:44;99683.72;;;7.68;100.00
29121;BME280;16191;49.548;8.658;2023-03-25T04:24:13;99686.31;;;7.68;100.00
29121;BME280;16191;49.548;8.658;2023-03-25T04:26:42;99679.19;;;7.73;100.00
29121;BME280;16191;49.548;8.658;2023-03-25T04:29:08;99674.97;;;7.70;100.00
29121;BME280;16191;49.548;8.658;2023-03-25T04:31:35;99678.25;;;7.75;100.00
29121;BME280;16191;49.548;8.658;2023-03-25T04:34:03;99684.44;;;7.71;100.00
29121;BME280;16191;49.548;8.658;2023-03-25T04:36:29;99696.53;;;7.72;100.00
29121;BME280;16191;49.548;8.658;2023-03-25T04:39:03;99691.97;;;7.79;100.00
29121;BME280;16191;49.548;8.658;2023-03-25T04:41:29;99690.50;;;7.72;100.00
29121;BME280;16191;49.548;8.658;2023-03-25T04:43:58;99690.44;;;7.73;100.00
29121;BME280;16191;49.548;8.658;2023-03-25T04:46:24;99694.66;;;7.76;100.00
29121;BME280;16191;49.548;8.658;2023-03-25T04:48:51;99691.28;;;7.74;100.00
29121;BME280;16191;49.548;8.658;2023-03-25T04:51:19;99699.03;;;7.75;100.00
29121;BME280;16191;49.548;8.658;2023-03-25T04:53:45;99690.50;;;7.72;100.00
29121;BME280;16191;49.548;8.658;2023-03-25T04:56:15;99692.97;;;7.75;100.00
29121;BME280;16191;49.548;8.658;2023-03-25T04:58:43;99692.19;;;7.73;100.00
29121;BME280;16191;49.548;8.658;2023-03-25T05:01:25;99703.19;;;7.79;100.00
29121;BME280;16191;49.548;8.658;2023-03-25T05:04:01;99701.72;;;7.72;100.00
29121;BME280;16191;49.548;8.658;2023-03-25T05:06:35;99695.63;;;7.73;100.00
29121;BME280;16191;49.548;8.658;2023-03-25T05:09:05;99694.00;;;7.71;100.00
29121;BME280;16191;49.548;8.658;2023-03-25T05:11:34;99695.81;;;7.69;100.00
29121;BME280;16191;49.548;8.658;2023-03-25T05:14:02;99701.94;;;7.66;100.00
29121;BME280;16191;49.548;8.658;2023-03-25T05:16:29;99699.34;;;7.66;100.00
29121;BME280;16191;49.548;8.658;2023-03-25T05:18:55;99694.16;;;7.66;100.00
29121;BME280;16191;49.548;8.658;2023-03-25T05:21:22;99705.28;;;7.70;100.00
29121;BME280;16191;49.548;8.658;2023-03-25T05:23:49;99708.91;;;7.66;100.00
29121;BME280;16191;49.548;8.658;2023-03-25T05:26:18;99723.63;;;7.65;100.00
29121;BME280;16191;49.548;8.658;2023-03-25T05:28:46;99715.88;;;7.64;100.00
29121;BME280;16191;49.548;8.658;2023-03-25T05:31:16;99715.00;;;7.65;100.00
29121;BME280;16191;49.548;8.658;2023-03-25T05:33:43;99725.44;;;7.63;100.00
29121;BME280;16191;49.548;8.658;2023-03-25T05:36:11;99713.28;;;7.64;100.00
29121;BME280;16191;49.548;8.658;2023-03-25T05:38:39;99722.78;;;7.65;100.00
29121;BME280;16191;49.548;8.658;2023-03-25T05:41:12;99728.78;;;7.67;100.00
29121;BME280;16191;49.548;8.658;2023-03-25T05:43:43;99723.63;;;7.65;100.00
29121;BME280;16191;49.548;8.658;2023-03-25T05:46:13;99729.56;;;7.69;100.00
29121;BME280;16191;49.548;8.658;2023-03-25T05:48:41;99718.38;;;7.67;100.00
29121;BME280;16191;49.548;8.658;2023-03-25T05:51:16;99716.56;;;7.69;100.00
29121;BME280;16191;49.548;8.658;2023-03-25T05:53:44;99719.16;;;7.69;100.00
29121;BME280;16191;49.548;8.658;2023-03-25T05:56:16;99721.66;;;7.72;100.00
29121;BME280;16191;49.548;8.658;2023-03-25T05:58:46;99730.28;;;7.72;100.00
29121;BME280;16191;49.548;8.658;2023-03-25T06:01:15;99736.22;;;7.76;100.00
29121;BME280;16191;49.548;8.658;2023-03-25T06:03:59;99731.16;;;7.73;100.00
29121;BME280;16191;49.548;8.658;2023-03-25T06:06:31;99745.88;;;7.72;100.00
29121;BME280;16191;49.548;8.658;2023-03-25T06:08:59;99748.41;;;7.74;100.00
29121;BME280;16191;49.548;8.658;2023-03-25T06:11:25;99744.91;;;7.75;100.00
29121;BME280;16191;49.548;8.658;2023-03-25T06:13:52;99739.72;;;7.75;100.00
29121;BME280;16191;49.548;8.658;2023-03-25T06:16:21;99749.09;;;7.79;100.00
29121;BME280;16191;49.548;8.658;2023-03-25T06:18:49;99754.22;;;7.80;100.00
29121;BME280;16191;49.548;8.658;2023-03-25T06:21:17;99750.72;;;7.81;100.00
29121;BME280;16191;49.548;8.658;2023-03-25T06:23:45;99758.41;;;7.84;100.00
29121;BME280;16191;49.548;8.658;2023-03-25T06:26:15;99756.53;;;7.88;100.00
29121;BME280;16191;49.548;8.658;2023-03-25T06:28:42;99751.28;;;7.89;100.00
29121;BME280;16191;49.548;8.658;2023-03-25T06:31:14;99751.22;;;7.91;100.00
29121;BME280;16191;49.548;8.658;2023-03-25T06:33:43;99760.72;;;7.92;100.00
29121;BME280;16191;49.548;8.658;2023-03-25T06:36:11;99750.16;;;7.97;100.00
29121;BME280;16191;49.548;8.658;2023-03-25T06:38:39;99753.53;;;7.99;100.00
29121;BME280;16191;49.548;8.658;2023-03-25T06:41:11;99743.81;;;8.04;100.00
29121;BME280;16191;49.548;8.658;2023-03-25T06:43:40;99749.84;;;8.04;100.00
29121;BME280;16191;49.548;8.658;2023-03-25T06:46:25;99758.47;;;8.05;100.00
29121;BME280;16191;49.548;8.658;2023-03-25T06:49:08;99757.69;;;8.03;100.00
29121;BME280;16191;49.548;8.658;2023-03-25T06:51:35;99755.84;;;8.06;100.00
29121;BME280;16191;49.548;8.658;2023-03-25T06:54:01;99759.91;;;8.13;100.00
29121;BME280;16191;49.548;8.658;2023-03-25T06:56:28;99749.50;;;8.13;100.00
29121;BME280;16191;49.548;8.658;2023-03-25T06:58:55;99746.63;;;8.21;100.00
29121;BME280;16191;49.548;8.658;2023-03-25T07:01:21;99735.16;;;8.25;100.00
29121;BME280;16191;49.548;8.658;2023-03-25T07:03:48;99724.53;;;8.31;100.00
29121;BME280;16191;49.548;8.658;2023-03-25T07:06:17;99725.97;;;8.40;100.00
29121;BME280;16191;49.548;8.658;2023-03-25T07:08:44;99718.56;;;8.51;100.00
29121;BME280;16191;49.548;8.658;2023-03-25T07:11:12;99713.97;;;8.57;100.00
29121;BME280;16191;49.548;8.658;2023-03-25T07:13:39;99723.84;;;8.70;100.00
29121;BME280;16191;49.548;8.658;2023-03-25T07:16:07;99701.94;;;8.75;100.00
29121;BME280;16191;49.548;8.658;2023-03-25T07:18:34;99707.63;;;8.85;100.00
29121;BME280;16191;49.548;8.658;2023-03-25T07:21:00;99715.81;;;8.96;100.00
29121;BME280;16191;49.548;8.658;2023-03-25T07:23:27;99713.88;;;9.01;100.00
29121;BME280;16191;49.548;8.658;2023-03-25T07:25:54;99705.63;;;9.10;100.00
29121;BME280;16191;49.548;8.658;2023-03-25T07:28:22;99696.72;;;9.16;100.00
29121;BME280;16191;49.548;8.658;2023-03-25T07:30:49;99689.25;;;9.28;100.00
29121;BME280;16191;49.548;8.658;2023-03-25T07:33:16;99697.47;;;9.38;100.00
29121;BME280;16191;49.548;8.658;2023-03-25T07:35:43;99704.88;;;9.47;100.00
29121;BME280;16191;49.548;8.658;2023-03-25T07:38:09;99686.34;;;9.53;100.00
29121;BME280;16191;49.548;8.658;2023-03-25T07:40:36;99689.25;;;9.66;100.00
29121;BME280;16191;49.548;8.658;2023-03-25T07:43:03;99676.56;;;9.77;100.00
29121;BME280;16191;49.548;8.658;2023-03-25T07:45:47;99692.84;;;9.82;100.00
29121;BME280;16191;49.548;8.658;2023-03-25T07:48:14;99676.38;;;9.82;100.00
29121;BME280;16191;49.548;8.658;2023-03-25T07:50:42;99680.84;;;9.97;100.00
29121;BME280;16191;49.548;8.658;2023-03-25T07:53:09;99688.88;;;10.11;100.00
29121;BME280;16191;49.548;8.658;2023-03-25T07:55:36;99689.66;;;10.13;100.00
29121;BME280;16191;49.548;8.658;2023-03-25T07:58:08;99684.78;;;10.24;100.00
29121;BME280;16191;49.548;8.658;2023-03-25T08:00:38;99688.25;;;10.42;100.00
29121;BME280;16191;49.548;8.658;2023-03-25T08:03:04;99693.41;;;10.44;100.00
29121;BME280;16191;49.548;8.658;2023-03-25T08:05:32;99677.00;;;10.59;100.00
29121;BME280;16191;49.548;8.658;2023-03-25T08:08:16;99703.94;;;10.59;100.00
29121;BME280;16191;49.548;8.658;2023-03-25T08:10:44;99683.38;;;10.71;100.00
29121;BME280;16191;49.548;8.658;2023-03-25T08:13:12;99686.53;;;10.77;100.00
29121;BME280;16191;49.548;8.658;2023-03-25T08:15:39;99705.63;;;10.78;100.00
29121;BME280;16191;49.548;8.658;2023-03-25T08:18:06;99706.84;;;10.71;100.00
29121;BME280;16191;49.548;8.658;2023-03-25T08:20:33;99714.53;;;10.56;100.00
29121;BME280;16191;49.548;8.658;2023-03-25T08:23:00;99703.47;;;10.51;100.00
29121;BME280;16191;49.548;8.658;2023-03-25T08:25:29;99723.00;;;10.43;100.00
29121;BME280;16191;49.548;8.658;2023-03-25T08:27:55;99710.28;;;10.37;100.00
29121;BME280;16191;49.548;8.658;2023-03-25T08:30:22;99710.00;;;10.24;100.00
29121;BME280;16191;49.548;8.658;2023-03-25T08:32:49;99713.66;;;10.39;100.00
29121;BME280;16191;49.548;8.658;2023-03-25T08:35:21;99718.63;;;10.43;100.00
29121;BME280;16191;49.548;8.658;2023-03-25T08:37:49;99717.00;;;10.41;100.00
29121;BME280;16191;49.548;8.658;2023-03-25T08:40:16;99720.41;;;10.43;100.00
29121;BME280;16191;49.548;8.658;2023-03-25T08:42:43;99697.91;;;10.40;100.00
29121;BME280;16191;49.548;8.658;2023-03-25T08:45:10;99704.25;;;10.53;100.00
29121;BME280;16191;49.548;8.658;2023-03-25T08:47:37;99695.41;;;10.73;100.00
29121;BME280;16191;49.548;8.658;2023-03-25T08:50:04;99694.25;;;10.96;100.00
29121;BME280;16191;49.548;8.658;2023-03-25T08:52:31;99698.34;;;11.02;100.00
29121;BME280;16191;49.548;8.658;2023-03-25T08:54:58;99694.81;;;11.51;100.00
29121;BME280;16191;49.548;8.658;2023-03-25T08:57:24;99690.88;;;11.44;100.00
29121;BME280;16191;49.548;8.658;2023-03-25T08:59:51;99704.69;;;11.46;100.00
29121;BME280;16191;49.548;8.658;2023-03-25T09:02:18;99702.06;;;11.13;100.00
29121;BME280;16191;49.548;8.658;2023-03-25T09:04:47;99689.69;;;11.17;100.00
29121;BME280;16191;49.548;8.658;2023-03-25T09:07:14;99697.91;;;11.09;100.00
29121;BME280;16191;49.548;8.658;2023-03-25T09:09:41;99700.81;;;11.20;100.00
29121;BME280;16191;49.548;8.658;2023-03-25T09:12:08;99695.75;;;11.17;100.00
29121;BME280;16191;49.548;8.658;2023-03-25T09:14:34;99696.50;;;11.04;100.00
29121;BME280;16191;49.548;8.658;2023-03-25T09:17:01;99694.63;;;11.06;100.00
29121;BME280;16191;49.548;8.658;2023-03-25T09:19:28;99691.72;;;10.94;100.00
29121;BME280;16191;49.548;8.658;2023-03-25T09:21:54;99679.91;;;10.87;100.00
29121;BME280;16191;49.548;8.658;2023-03-25T09:24:21;99688.06;;;10.81;100.00
29121;BME280;16191;49.548;8.658;2023-03-25T09:26:48;99688.72;;;10.68;100.00
29121;BME280;16191;49.548;8.658;2023-03-25T09:29:15;99692.13;;;10.52;100.00
29121;BME280;16191;49.548;8.658;2023-03-25T09:31:41;99694.56;;;10.38;100.00
29121;BME280;16191;49.548;8.658;2023-03-25T09:34:08;99691.75;;;10.24;100.00
29121;BME280;16191;49.548;8.658;2023-03-25T09:36:35;99710.25;;;10.18;100.00
29121;BME280;16191;49.548;8.658;2023-03-25T09:39:02;99694.88;;;10.13;100.00
29121;BME280;16191;49.548;8.658;2023-03-25T09:46:44;99702.84;;;9.91;100.00
29121;BME280;16191;49.548;8.658;2023-03-25T09:49:18;99699.53;;;9.88;100.00
29121;BME280;16191;49.548;8.658;2023-03-25T09:51:47;99691.94;;;9.83;100.00
29121;BME280;16191;49.548;8.658;2023-03-25T09:54:20;99698.75;;;9.86;100.00
29121;BME280;16191;49.548;8.658;2023-03-25T09:56:48;99709.13;;;9.87;100.00
29121;BME280;16191;49.548;8.658;2023-03-25T09:59:19;99698.75;;;9.86;100.00
29121;BME280;16191;49.548;8.658;2023-03-25T10:01:55;99699.72;;;10.02;100.00
29121;BME280;16191;49.548;8.658;2023-03-25T10:12:49;99708.16;;;11.47;100.00
29121;BME280;16191;49.548;8.658;2023-03-25T10:15:39;99705.75;;;11.09;100.00
29121;BME280;16191;49.548;8.658;2023-03-25T10:20:51;99703.78;;;11.63;100.00
29121;BME280;16191;49.548;8.658;2023-03-25T10:23:41;99683.44;;;11.52;100.00
29121;BME280;16191;49.548;8.658;2023-03-25T10:26:14;99706.66;;;11.08;100.00
29121;BME280;16191;49.548;8.658;2023-03-25T10:28:49;99697.75;;;11.78;100.00
29121;BME280;16191;49.548;8.658;2023-03-25T10:31:19;99683.19;;;12.35;100.00
29121;BME280;16191;49.548;8.658;2023-03-25T10:33:56;99702.66;;;11.51;100.00
29121;BME280;16191;49.548;8.658;2023-03-25T10:36:33;99707.16;;;11.32;100.00
29121;BME280;16191;49.548;8.658;2023-03-25T10:39:03;99705.63;;;11.45;100.00
29121;BME280;16191;49.548;8.658;2023-03-25T10:41:36;99699.22;;;11.18;100.00
29121;BME280;16191;49.548;8.658;2023-03-25T10:44:09;99695.22;;;11.11;100.00
29121;BME280;16191;49.548;8.658;2023-03-25T10:46:45;99683.78;;;11.13;100.00
29121;BME280;16191;49.548;8.658;2023-03-25T10:49:19;99684.78;;;11.11;100.00
29121;BME280;16191;49.548;8.658;2023-03-25T10:51:49;99685.25;;;11.19;100.00
29121;BME280;16191;49.548;8.658;2023-03-25T10:54:22;99669.22;;;10.92;100.00
29121;BME280;16191;49.548;8.658;2023-03-25T10:56:51;99655.91;;;10.81;100.00
29121;BME280;16191;49.548;8.658;2023-03-25T10:59:30;99645.13;;;10.87;100.00
29121;BME280;16191;49.548;8.658;2023-03-25T11:02:22;99640.91;;;10.67;100.00
29121;BME280;16191;49.548;8.658;2023-03-25T11:04:56;99644.09;;;10.56;100.00
29121;BME280;16191;49.548;8.658;2023-03-25T11:12:34;99730.59;;;9.74;100.00
29121;BME280;16191;49.548;8.658;2023-03-25T11:15:23;99740.19;;;9.92;100.00
29121;BME280;16191;49.548;8.658;2023-03-25T11:18:09;99746.91;;;9.58;100.00
29121;BME280;16191;49.548;8.658;2023-03-25T11:20:39;99755.84;;;9.53;100.00
29121;BME280;16191;49.548;8.658;2023-03-25T11:26:07;99762.25;;;9.46;100.00
29121;BME280;16191;49.548;8.658;2023-03-25T11:28:40;99751.69;;;9.49;100.00
29121;BME280;16191;49.548;8.658;2023-03-25T11:33:40;99763.25;;;9.81;100.00
29121;BME280;16191;49.548;8.658;2023-03-25T11:39:36;99769.13;;;9.86;100.00
29121;BME280;16191;49.548;8.658;2023-03-25T11:42:25;99779.09;;;9.76;100.00
29121;BME280;16191;49.548;8.658;2023-03-25T11:44:55;99773.88;;;9.76;100.00
29121;BME280;16191;49.548;8.658;2023-03-25T11:47:26;99768.47;;;9.81;100.00
29121;BME280;16191;49.548;8.658;2023-03-25T11:49:56;99764.38;;;9.75;100.00
29121;BME280;16191;49.548;8.658;2023-03-25T11:52:25;99786.84;;;9.78;100.00
29121;BME280;16191;49.548;8.658;2023-03-25T11:54:54;99768.63;;;9.78;100.00
29121;BME280;16191;49.548;8.658;2023-03-25T11:57:25;99761.88;;;9.92;100.00
29121;BME280;16191;49.548;8.658;2023-03-25T12:00:19;99741.44;;;10.02;100.00
29121;BME280;16191;49.548;8.658;2023-03-25T12:02:47;99768.91;;;10.09;100.00
29121;BME280;16191;49.548;8.658;2023-03-25T12:05:14;99768.78;;;10.12;100.00
29121;BME280;16191;49.548;8.658;2023-03-25T12:07:44;99764.47;;;10.11;100.00
29121;BME280;16191;49.548;8.658;2023-03-25T12:10:31;99762.72;;;10.67;100.00
29121;BME280;16191;49.548;8.658;2023-03-25T12:16:13;99753.84;;;11.55;99.57
29121;BME280;16191;49.548;8.658;2023-03-25T12:18:59;99753.34;;;11.82;91.95
29121;BME280;16191;49.548;8.658;2023-03-25T12:27:24;99741.59;;;12.82;83.71
29121;BME280;16191;49.548;8.658;2023-03-25T12:32:37;99749.78;;;11.83;85.55
29121;BME280;16191;49.548;8.658;2023-03-25T12:35:18;99758.81;;;11.77;87.78
29121;BME280;16191;49.548;8.658;2023-03-25T12:38:05;99739.28;;;11.67;89.23
29121;BME280;16191;49.548;8.658;2023-03-25T12:49:28;99734.81;;;11.69;86.88
29121;BME280;16191;49.548;8.658;2023-03-25T13:05:44;99689.28;;;11.57;91.86
29121;BME280;16191;49.548;8.658;2023-03-25T13:08:27;99698.44;;;11.49;93.15
29121;BME280;16191;49.548;8.658;2023-03-25T13:11:02;99717.34;;;11.87;87.25
29121;BME280;16191;49.548;8.658;2023-03-25T13:13:34;99705.47;;;12.43;84.29
29121;BME280;16191;49.548;8.658;2023-03-25T13:16:06;99719.94;;;12.18;80.85
29121;BME280;16191;49.548;8.658;2023-03-25T13:18:40;99709.06;;;12.10;75.92
29121;BME280;16191;49.548;8.658;2023-03-25T13:21:51;99691.91;;;12.20;68.91
29121;BME280;16191;49.548;8.658;2023-03-25T13:24:23;99688.69;;;12.47;64.83
29121;BME280;16191;49.548;8.658;2023-03-25T13:26:54;99681.94;;;13.31;63.34
29121;BME280;16191;49.548;8.658;2023-03-25T13:29:29;99693.72;;;13.66;61.39
29121;BME280;16191;49.548;8.658;2023-03-25T13:32:01;99694.19;;;13.73;59.76
29121;BME280;16191;49.548;8.658;2023-03-25T13:34:53;99677.97;;;14.07;59.26
29121;BME280;16191;49.548;8.658;2023-03-25T13:37:25;99687.16;;;14.68;59.04
29121;BME280;16191;49.548;8.658;2023-03-25T13:45:18;99678.72;;;13.68;59.06
29121;BME280;16191;49.548;8.658;2023-03-25T13:47:52;99660.59;;;14.06;57.42
29121;BME280;16191;49.548;8.658;2023-03-25T13:50:25;99672.47;;;13.57;58.49
29121;BME280;16191;49.548;8.658;2023-03-25T13:53:01;99655.47;;;13.35;57.06
29121;BME280;16191;49.548;8.658;2023-03-25T13:55:36;99671.06;;;13.23;57.12
29121;BME280;16191;49.548;8.658;2023-03-25T14:03:57;99681.25;;;13.13;62.34
29121;BME280;16191;49.548;8.658;2023-03-25T14:12:03;99667.97;;;15.57;56.32
29121;BME280;16191;49.548;8.658;2023-03-25T14:14:38;99684.16;;;15.13;46.39
29121;BME280;16191;49.548;8.658;2023-03-25T14:17:06;99671.69;;;14.37;48.85
29121;BME280;16191;49.548;8.658;2023-03-25T14:19:37;99684.88;;;14.23;50.11
29121;BME280;16191;49.548;8.658;2023-03-25T14:22:09;99687.91;;;13.76;50.10
29121;BME280;16191;49.548;8.658;2023-03-25T14:24:38;99682.88;;;13.58;50.17
29121;BME280;16191;49.548;8.658;2023-03-25T14:34:49;99681.44;;;14.08;50.74
29121;BME280;16191;49.548;8.658;2023-03-25T14:39:54;99670.47;;;14.16;51.20
29121;BME280;16191;49.548;8.658;2023-03-25T14:42:27;99667.72;;;14.04;51.12
29121;BME280;16191;49.548;8.658;2023-03-25T14:45:50;99654.91;;;13.86;49.80
29121;BME280;16191;49.548;8.658;2023-03-25T14:48:22;99652.81;;;14.71;47.91
29121;BME280;16191;49.548;8.658;2023-03-25T14:54:02;99658.63;;;14.23;49.26
29121;BME280;16191;49.548;8.658;2023-03-25T14:57:00;99655.34;;;13.92;48.59
29121;BME280;16191;49.548;8.658;2023-03-25T14:59:36;99659.72;;;14.33;48.20
29121;BME280;16191;49.548;8.658;2023-03-25T15:02:13;99653.63;;;14.59;46.37
29121;BME280;16191;49.548;8.658;2023-03-25T15:04:41;99646.00;;;14.15;47.25
29121;BME280;16191;49.548;8.658;2023-03-25T15:07:14;99649.34;;;14.96;46.59
29121;BME280;16191;49.548;8.658;2023-03-25T15:09:49;99653.13;;;14.67;47.35
29121;BME280;16191;49.548;8.658;2023-03-25T15:12:19;99658.75;;;14.21;46.50
29121;BME280;16191;49.548;8.658;2023-03-25T15:14:54;99656.56;;;14.28;46.74
29121;BME280;16191;49.548;8.658;2023-03-25T15:17:40;99657.97;;;14.86;45.86
29121;BME280;16191;49.548;8.658;2023-03-25T15:22:36;99663.25;;;14.19;44.50
29121;BME280;16191;49.548;8.658;2023-03-25T15:25:15;99661.53;;;14.05;46.30
29121;BME280;16191;49.548;8.658;2023-03-25T15:28:00;99668.00;;;14.00;47.11
29121;BME280;16191;49.548;8.658;2023-03-25T15:47:25;99644.13;;;13.49;47.85
29121;BME280;16191;49.548;8.658;2023-03-25T15:50:25;99642.63;;;13.45;47.76
29121;BME280;16191;49.548;8.658;2023-03-25T15:55:35;99640.75;;;13.33;49.52
29121;BME280;16191;49.548;8.658;2023-03-25T15:58:27;99651.06;;;13.36;50.18